Pagrindinis puslapis
METAR-TAF:

METAR-TAF

Oro uostai :

Bingöl, Turkija

platuma: 38-51-40N, ilguma: 40-35-33E, Aukštis: 1063 m

Dabartinis oras

Ataskaita buvo paskelbta 9 valandos ir 23 minutes, ne 11:50 UTC
Vėjas 2 kt nuo kintamojo kryptimis
Temperatūra 8°C
Drėgmė 81%
Slėgis 1021 hPa
Matomumas 10 km arba daugiau
Mažai debesys ne aukštis 1500 ft
Su prošvaistėmis ne aukštis 3300 ft
Su prošvaistėmis ne aukštis 8000 ft

METAR: LTCU 151150Z VRB02KT 9999 FEW015 BKN033 BKN080 08/05 Q1021

Laikas: 00:13 (21:13 UTC)

Prognozė

Ataskaita buvo paskelbta 7 valandos ir 33 minutes, ne 13:40 UTC
Prognozė galioja nuo 15 metu 15 UTC su 15 metu 24 UTC
Vėjas 2 kt nuo kintamojo kryptimis
Matomumas 10 km arba daugiau
Išsisklaidę debesys ne aukštis 1500 ft
Su prošvaistėmis ne aukštis 3500 ft

TAF: LTCU 151340Z 1515/1524 VRB02KT 9999 SCT015 BKN035

Orai ataskaitas ir orų prognozės (METAR, TAF).

turimą stotys yra geltonos ir raudonos taškus žemėlapyje.

Perkelti pele per norėdami pamatyti stoties vardą.

Tada spustelėkite, norėdami matyti oro stebėjimo ir prognozės.

Norėdami pakeisti žemėlapį: spustelėkite ant žalios mygtukų su juodo kryžiaus žemyn,; žalią mygtuką su brūkšneliu, jei norite nutolinti; arba žalių rodyklių gretimoms žemėlapius.


METAR-TAF: